sensor_id;sensor_type;location;lat;lon;timestamp;pressure;altitude;pressure_sealevel;temperature;humidity
27613;BME280;15036;48.094;-1.690;2023-04-19T00:00:17;101310.88;;;15.94;53.93
27613;BME280;15036;48.094;-1.690;2023-04-19T00:02:43;101314.75;;;15.80;54.39
27613;BME280;15036;48.094;-1.690;2023-04-19T00:05:08;101303.22;;;15.58;54.79
27613;BME280;15036;48.094;-1.690;2023-04-19T00:07:35;101298.47;;;15.78;54.45
27613;BME280;15036;48.094;-1.690;2023-04-19T00:10:01;101294.97;;;15.96;54.11
27613;BME280;15036;48.094;-1.690;2023-04-19T00:12:26;101293.63;;;16.05;53.75
27613;BME280;15036;48.094;-1.690;2023-04-19T00:14:52;101294.84;;;16.15;53.30
27613;BME280;15036;48.094;-1.690;2023-04-19T00:17:17;101297.72;;;15.96;53.60
27613;BME280;15036;48.094;-1.690;2023-04-19T00:19:43;101295.66;;;15.85;54.02
27613;BME280;15036;48.094;-1.690;2023-04-19T00:22:08;101295.59;;;15.98;53.49
27613;BME280;15036;48.094;-1.690;2023-04-19T00:24:34;101290.72;;;16.24;52.95
27613;BME280;15036;48.094;-1.690;2023-04-19T00:27:00;101302.22;;;16.21;52.95
27613;BME280;15036;48.094;-1.690;2023-04-19T00:29:26;101296.31;;;16.18;53.10
27613;BME280;15036;48.094;-1.690;2023-04-19T00:31:51;101293.56;;;16.18;53.29
27613;BME280;15036;48.094;-1.690;2023-04-19T00:34:17;101291.63;;;16.18;53.23
27613;BME280;15036;48.094;-1.690;2023-04-19T00:36:42;101288.56;;;16.33;52.86
27613;BME280;15036;48.094;-1.690;2023-04-19T00:39:07;101289.22;;;16.28;53.01
27613;BME280;15036;48.094;-1.690;2023-04-19T00:41:33;101278.03;;;16.55;52.41
27613;BME280;15036;48.094;-1.690;2023-04-19T00:43:58;101279.34;;;16.70;51.91
27613;BME280;15036;48.094;-1.690;2023-04-19T00:46:24;101268.84;;;16.61;52.21
27613;BME280;15036;48.094;-1.690;2023-04-19T00:48:50;101269.66;;;16.68;51.70
27613;BME280;15036;48.094;-1.690;2023-04-19T00:51:15;101274.66;;;16.53;52.20
27613;BME280;15036;48.094;-1.690;2023-04-19T00:53:42;101259.28;;;16.63;52.19
27613;BME280;15036;48.094;-1.690;2023-04-19T00:56:08;101267.00;;;16.48;52.21
27613;BME280;15036;48.094;-1.690;2023-04-19T00:58:36;101266.03;;;16.67;52.12
27613;BME280;15036;48.094;-1.690;2023-04-19T01:01:02;101261.13;;;16.44;52.27
27613;BME280;15036;48.094;-1.690;2023-04-19T01:03:28;101255.41;;;16.71;51.70
27613;BME280;15036;48.094;-1.690;2023-04-19T01:05:55;101261.28;;;16.74;51.47
27613;BME280;15036;48.094;-1.690;2023-04-19T01:08:21;101253.41;;;16.60;52.15
27613;BME280;15036;48.094;-1.690;2023-04-19T01:10:46;101259.63;;;16.73;51.82
27613;BME280;15036;48.094;-1.690;2023-04-19T01:13:12;101248.13;;;16.76;51.73
27613;BME280;15036;48.094;-1.690;2023-04-19T01:15:37;101247.88;;;16.78;51.53
27613;BME280;15036;48.094;-1.690;2023-04-19T01:18:02;101245.28;;;16.40;52.37
27613;BME280;15036;48.094;-1.690;2023-04-19T01:20:28;101245.13;;;16.28;52.46
27613;BME280;15036;48.094;-1.690;2023-04-19T01:22:53;101238.53;;;16.61;52.08
27613;BME280;15036;48.094;-1.690;2023-04-19T01:25:18;101237.91;;;16.59;51.95
27613;BME280;15036;48.094;-1.690;2023-04-19T01:27:44;101236.06;;;16.28;52.73
27613;BME280;15036;48.094;-1.690;2023-04-19T01:30:10;101231.03;;;16.43;52.60
27613;BME280;15036;48.094;-1.690;2023-04-19T01:32:35;101223.72;;;16.30;52.60
27613;BME280;15036;48.094;-1.690;2023-04-19T01:35:00;101220.16;;;16.48;52.25
27613;BME280;15036;48.094;-1.690;2023-04-19T01:37:26;101206.84;;;16.45;52.24
27613;BME280;15036;48.094;-1.690;2023-04-19T01:39:51;101220.81;;;16.25;52.47
27613;BME280;15036;48.094;-1.690;2023-04-19T01:42:16;101220.16;;;16.48;51.95
27613;BME280;15036;48.094;-1.690;2023-04-19T01:44:42;101218.00;;;16.32;52.37
27613;BME280;15036;48.094;-1.690;2023-04-19T01:47:07;101213.09;;;16.09;52.84
27613;BME280;15036;48.094;-1.690;2023-04-19T01:49:32;101211.16;;;16.34;52.47
27613;BME280;15036;48.094;-1.690;2023-04-19T01:51:58;101213.59;;;16.24;52.52
27613;BME280;15036;48.094;-1.690;2023-04-19T01:54:23;101207.25;;;16.24;52.54
27613;BME280;15036;48.094;-1.690;2023-04-19T01:56:49;101211.13;;;16.16;52.86
27613;BME280;15036;48.094;-1.690;2023-04-19T01:59:14;101213.31;;;16.32;52.48
27613;BME280;15036;48.094;-1.690;2023-04-19T02:01:39;101206.13;;;16.31;52.41
27613;BME280;15036;48.094;-1.690;2023-04-19T02:04:05;101207.78;;;16.32;52.38
27613;BME280;15036;48.094;-1.690;2023-04-19T02:06:31;101204.22;;;16.32;52.24
27613;BME280;15036;48.094;-1.690;2023-04-19T02:08:57;101197.66;;;16.08;52.39
27613;BME280;15036;48.094;-1.690;2023-04-19T02:11:22;101212.50;;;16.01;53.01
27613;BME280;15036;48.094;-1.690;2023-04-19T02:13:47;101206.34;;;16.05;52.77
27613;BME280;15036;48.094;-1.690;2023-04-19T02:16:13;101200.56;;;16.13;52.83
27613;BME280;15036;48.094;-1.690;2023-04-19T02:18:38;101202.47;;;15.88;53.03
27613;BME280;15036;48.094;-1.690;2023-04-19T02:21:05;101204.66;;;16.04;53.06
27613;BME280;15036;48.094;-1.690;2023-04-19T02:23:31;101198.00;;;15.87;53.27
27613;BME280;15036;48.094;-1.690;2023-04-19T02:25:56;101203.47;;;15.94;53.20
27613;BME280;15036;48.094;-1.690;2023-04-19T02:28:22;101199.69;;;15.88;53.35
27613;BME280;15036;48.094;-1.690;2023-04-19T02:30:47;101194.09;;;16.01;53.19
27613;BME280;15036;48.094;-1.690;2023-04-19T02:33:14;101191.78;;;15.98;52.93
27613;BME280;15036;48.094;-1.690;2023-04-19T02:35:39;101192.44;;;15.94;53.31
27613;BME280;15036;48.094;-1.690;2023-04-19T02:38:04;101189.56;;;15.82;53.36
27613;BME280;15036;48.094;-1.690;2023-04-19T02:40:30;101192.34;;;15.82;53.59
27613;BME280;15036;48.094;-1.690;2023-04-19T02:42:55;101185.25;;;15.93;53.25
27613;BME280;15036;48.094;-1.690;2023-04-19T02:45:21;101185.13;;;15.81;53.62
27613;BME280;15036;48.094;-1.690;2023-04-19T02:47:46;101188.47;;;15.90;53.34
27613;BME280;15036;48.094;-1.690;2023-04-19T02:50:13;101182.34;;;15.88;53.46
27613;BME280;15036;48.094;-1.690;2023-04-19T02:52:38;101186.44;;;16.03;52.89
27613;BME280;15036;48.094;-1.690;2023-04-19T02:55:05;101175.47;;;15.97;53.20
27613;BME280;15036;48.094;-1.690;2023-04-19T02:57:30;101177.59;;;15.95;53.15
27613;BME280;15036;48.094;-1.690;2023-04-19T02:59:56;101177.56;;;15.77;53.69
27613;BME280;15036;48.094;-1.690;2023-04-19T03:02:21;101175.13;;;15.87;53.38
27613;BME280;15036;48.094;-1.690;2023-04-19T03:04:47;101173.22;;;15.87;53.28
27613;BME280;15036;48.094;-1.690;2023-04-19T03:07:12;101176.16;;;15.92;53.24
27613;BME280;15036;48.094;-1.690;2023-04-19T03:09:38;101171.03;;;15.96;53.21
27613;BME280;15036;48.094;-1.690;2023-04-19T03:12:04;101178.66;;;16.00;53.08
27613;BME280;15036;48.094;-1.690;2023-04-19T03:14:29;101173.69;;;15.84;53.23
27613;BME280;15036;48.094;-1.690;2023-04-19T03:16:55;101173.06;;;15.82;53.38
27613;BME280;15036;48.094;-1.690;2023-04-19T03:19:20;101186.59;;;15.52;53.93
27613;BME280;15036;48.094;-1.690;2023-04-19T03:21:46;101188.56;;;15.39;54.45
27613;BME280;15036;48.094;-1.690;2023-04-19T03:24:11;101175.88;;;15.31;54.51
27613;BME280;15036;48.094;-1.690;2023-04-19T03:26:36;101192.22;;;15.20;54.91
27613;BME280;15036;48.094;-1.690;2023-04-19T03:29:02;101191.28;;;14.95;55.63
27613;BME280;15036;48.094;-1.690;2023-04-19T03:31:27;101191.50;;;14.93;55.85
27613;BME280;15036;48.094;-1.690;2023-04-19T03:33:53;101188.63;;;15.19;55.40
27613;BME280;15036;48.094;-1.690;2023-04-19T03:36:18;101191.03;;;15.09;55.32
27613;BME280;15036;48.094;-1.690;2023-04-19T03:38:43;101190.88;;;14.91;55.87
27613;BME280;15036;48.094;-1.690;2023-04-19T03:41:19;101188.59;;;14.68;56.71
27613;BME280;15036;48.094;-1.690;2023-04-19T03:43:44;101195.03;;;15.07;55.64
27613;BME280;15036;48.094;-1.690;2023-04-19T03:46:10;101201.31;;;15.27;55.30
27613;BME280;15036;48.094;-1.690;2023-04-19T03:48:35;101190.22;;;15.40;54.62
27613;BME280;15036;48.094;-1.690;2023-04-19T03:51:01;101189.81;;;15.36;54.70
27613;BME280;15036;48.094;-1.690;2023-04-19T03:53:26;101183.56;;;15.16;55.14
27613;BME280;15036;48.094;-1.690;2023-04-19T03:55:51;101181.22;;;15.20;55.18
27613;BME280;15036;48.094;-1.690;2023-04-19T03:58:17;101176.81;;;15.12;55.36
27613;BME280;15036;48.094;-1.690;2023-04-19T04:00:42;101176.38;;;15.15;55.48
27613;BME280;15036;48.094;-1.690;2023-04-19T04:03:08;101184.59;;;15.28;55.00
27613;BME280;15036;48.094;-1.690;2023-04-19T04:05:33;101181.47;;;15.12;55.40
27613;BME280;15036;48.094;-1.690;2023-04-19T04:07:59;101185.06;;;15.19;55.21
27613;BME280;15036;48.094;-1.690;2023-04-19T04:10:25;101190.97;;;15.16;55.24
27613;BME280;15036;48.094;-1.690;2023-04-19T04:12:50;101183.41;;;15.11;55.24
27613;BME280;15036;48.094;-1.690;2023-04-19T04:15:15;101178.56;;;15.00;55.76
27613;BME280;15036;48.094;-1.690;2023-04-19T04:17:41;101187.06;;;14.92;55.97
27613;BME280;15036;48.094;-1.690;2023-04-19T04:20:06;101179.13;;;15.15;55.39
27613;BME280;15036;48.094;-1.690;2023-04-19T04:22:33;101184.44;;;15.17;55.23
27613;BME280;15036;48.094;-1.690;2023-04-19T04:24:58;101182.78;;;15.03;55.74
27613;BME280;15036;48.094;-1.690;2023-04-19T04:27:25;101183.09;;;15.26;55.03
27613;BME280;15036;48.094;-1.690;2023-04-19T04:29:50;101177.63;;;15.19;55.18
27613;BME280;15036;48.094;-1.690;2023-04-19T04:32:16;101182.16;;;15.07;55.32
27613;BME280;15036;48.094;-1.690;2023-04-19T04:34:46;101181.22;;;14.75;56.68
27613;BME280;15036;48.094;-1.690;2023-04-19T04:37:12;101175.16;;;15.05;55.66
27613;BME280;15036;48.094;-1.690;2023-04-19T04:39:37;101184.44;;;15.10;55.45
27613;BME280;15036;48.094;-1.690;2023-04-19T04:42:05;101177.53;;;15.01;55.83
27613;BME280;15036;48.094;-1.690;2023-04-19T04:44:33;101182.97;;;15.08;55.61
27613;BME280;15036;48.094;-1.690;2023-04-19T04:46:59;101167.72;;;15.12;55.39
27613;BME280;15036;48.094;-1.690;2023-04-19T04:49:25;101176.44;;;15.09;55.47
27613;BME280;15036;48.094;-1.690;2023-04-19T04:51:50;101177.69;;;15.06;55.87
27613;BME280;15036;48.094;-1.690;2023-04-19T04:54:15;101179.50;;;15.25;55.18
27613;BME280;15036;48.094;-1.690;2023-04-19T04:56:41;101177.00;;;15.17;55.39
27613;BME280;15036;48.094;-1.690;2023-04-19T04:59:07;101189.94;;;15.17;55.05
27613;BME280;15036;48.094;-1.690;2023-04-19T05:01:33;101176.50;;;14.89;56.13
27613;BME280;15036;48.094;-1.690;2023-04-19T05:03:59;101183.19;;;15.06;55.71
27613;BME280;15036;48.094;-1.690;2023-04-19T05:06:25;101181.75;;;14.97;55.79
27613;BME280;15036;48.094;-1.690;2023-04-19T05:08:50;101187.81;;;15.19;55.38
27613;BME280;15036;48.094;-1.690;2023-04-19T05:11:16;101176.56;;;15.27;55.05
27613;BME280;15036;48.094;-1.690;2023-04-19T05:13:41;101185.47;;;15.16;55.45
27613;BME280;15036;48.094;-1.690;2023-04-19T05:16:07;101185.47;;;15.22;55.41
27613;BME280;15036;48.094;-1.690;2023-04-19T05:18:32;101189.00;;;15.29;55.00
27613;BME280;15036;48.094;-1.690;2023-04-19T05:20:58;101181.53;;;14.99;56.01
27613;BME280;15036;48.094;-1.690;2023-04-19T05:23:23;101179.31;;;15.20;55.50
27613;BME280;15036;48.094;-1.690;2023-04-19T05:25:48;101182.16;;;15.07;55.68
27613;BME280;15036;48.094;-1.690;2023-04-19T05:28:16;101184.47;;;15.04;55.77
27613;BME280;15036;48.094;-1.690;2023-04-19T05:30:41;101180.59;;;15.18;55.34
27613;BME280;15036;48.094;-1.690;2023-04-19T05:33:07;101181.38;;;15.31;55.06
27613;BME280;15036;48.094;-1.690;2023-04-19T05:35:32;101185.63;;;15.27;55.05
27613;BME280;15036;48.094;-1.690;2023-04-19T05:37:57;101186.06;;;15.31;55.05
27613;BME280;15036;48.094;-1.690;2023-04-19T05:40:23;101182.63;;;15.35;55.15
27613;BME280;15036;48.094;-1.690;2023-04-19T05:42:48;101188.56;;;15.39;54.88
27613;BME280;15036;48.094;-1.690;2023-04-19T05:45:15;101186.00;;;15.37;54.94
27613;BME280;15036;48.094;-1.690;2023-04-19T05:47:40;101187.56;;;15.27;55.28
27613;BME280;15036;48.094;-1.690;2023-04-19T05:50:08;101199.13;;;15.48;54.88
27613;BME280;15036;48.094;-1.690;2023-04-19T05:52:33;101195.75;;;15.33;54.93
27613;BME280;15036;48.094;-1.690;2023-04-19T05:54:58;101193.19;;;15.38;55.02
27613;BME280;15036;48.094;-1.690;2023-04-19T05:57:24;101192.56;;;15.36;55.18
27613;BME280;15036;48.094;-1.690;2023-04-19T05:59:50;101188.97;;;15.36;55.16
27613;BME280;15036;48.094;-1.690;2023-04-19T06:02:15;101187.25;;;15.48;55.02
27613;BME280;15036;48.094;-1.690;2023-04-19T06:04:41;101179.09;;;15.66;54.49
27613;BME280;15036;48.094;-1.690;2023-04-19T06:07:06;101186.97;;;15.63;54.68
27613;BME280;15036;48.094;-1.690;2023-04-19T06:09:32;101190.53;;;15.63;54.57
27613;BME280;15036;48.094;-1.690;2023-04-19T06:11:57;101181.97;;;15.78;54.51
27613;BME280;15036;48.094;-1.690;2023-04-19T06:14:23;101185.72;;;15.90;54.04
27613;BME280;15036;48.094;-1.690;2023-04-19T06:16:48;101187.72;;;15.76;54.35
27613;BME280;15036;48.094;-1.690;2023-04-19T06:19:14;101184.09;;;15.76;54.19
27613;BME280;15036;48.094;-1.690;2023-04-19T06:21:39;101177.69;;;15.88;54.18
27613;BME280;15036;48.094;-1.690;2023-04-19T06:24:06;101175.50;;;15.66;54.50
27613;BME280;15036;48.094;-1.690;2023-04-19T06:26:31;101180.97;;;15.72;54.62
27613;BME280;15036;48.094;-1.690;2023-04-19T06:29:00;101182.50;;;15.93;54.08
27613;BME280;15036;48.094;-1.690;2023-04-19T06:31:25;101175.06;;;15.93;53.99
27613;BME280;15036;48.094;-1.690;2023-04-19T06:33:50;101170.84;;;15.91;54.15
27613;BME280;15036;48.094;-1.690;2023-04-19T06:36:16;101169.06;;;16.03;53.62
27613;BME280;15036;48.094;-1.690;2023-04-19T06:38:42;101172.25;;;16.06;53.92
27613;BME280;15036;48.094;-1.690;2023-04-19T06:41:09;101166.66;;;16.13;53.81
27613;BME280;15036;48.094;-1.690;2023-04-19T06:43:34;101168.59;;;16.30;53.56
27613;BME280;15036;48.094;-1.690;2023-04-19T06:46:01;101163.63;;;16.21;53.51
27613;BME280;15036;48.094;-1.690;2023-04-19T06:48:26;101160.53;;;16.35;53.47
27613;BME280;15036;48.094;-1.690;2023-04-19T06:50:52;101167.94;;;16.35;53.35
27613;BME280;15036;48.094;-1.690;2023-04-19T06:53:18;101160.53;;;16.35;53.34
27613;BME280;15036;48.094;-1.690;2023-04-19T06:55:44;101165.59;;;16.14;53.74
27613;BME280;15036;48.094;-1.690;2023-04-19T06:58:09;101162.44;;;16.35;53.39
27613;BME280;15036;48.094;-1.690;2023-04-19T07:00:38;101168.56;;;16.37;53.49
27613;BME280;15036;48.094;-1.690;2023-04-19T07:03:03;101163.00;;;16.19;54.01
27613;BME280;15036;48.094;-1.690;2023-04-19T07:05:30;101171.69;;;16.40;53.76
27613;BME280;15036;48.094;-1.690;2023-04-19T07:07:55;101174.44;;;16.65;53.27
27613;BME280;15036;48.094;-1.690;2023-04-19T07:10:21;101165.88;;;16.73;53.36
27613;BME280;15036;48.094;-1.690;2023-04-19T07:12:46;101168.34;;;16.81;53.50
27613;BME280;15036;48.094;-1.690;2023-04-19T07:15:12;101166.19;;;16.83;53.39
27613;BME280;15036;48.094;-1.690;2023-04-19T07:17:39;101167.00;;;17.02;53.11
27613;BME280;15036;48.094;-1.690;2023-04-19T07:20:05;101164.47;;;17.18;52.57
27613;BME280;15036;48.094;-1.690;2023-04-19T07:22:31;101162.56;;;17.19;52.64
27613;BME280;15036;48.094;-1.690;2023-04-19T07:24:57;101159.72;;;17.07;52.43
27613;BME280;15036;48.094;-1.690;2023-04-19T07:27:23;101156.00;;;17.31;51.97
27613;BME280;15036;48.094;-1.690;2023-04-19T07:29:48;101162.91;;;17.41;51.58
27613;BME280;15036;48.094;-1.690;2023-04-19T07:32:13;101161.22;;;17.21;51.81
27613;BME280;15036;48.094;-1.690;2023-04-19T07:34:39;101170.69;;;17.44;51.34
27613;BME280;15036;48.094;-1.690;2023-04-19T07:37:06;101175.22;;;17.56;51.42
27613;BME280;15036;48.094;-1.690;2023-04-19T07:39:32;101163.16;;;17.69;51.08
27613;BME280;15036;48.094;-1.690;2023-04-19T07:41:58;101163.50;;;17.61;50.89
27613;BME280;15036;48.094;-1.690;2023-04-19T07:44:25;101155.69;;;17.69;51.01
27613;BME280;15036;48.094;-1.690;2023-04-19T07:46:51;101161.38;;;17.74;51.02
27613;BME280;15036;48.094;-1.690;2023-04-19T07:49:16;101147.91;;;17.78;50.72
27613;BME280;15036;48.094;-1.690;2023-04-19T07:51:42;101145.41;;;17.88;50.66
27613;BME280;15036;48.094;-1.690;2023-04-19T07:54:07;101149.72;;;17.84;50.85
27613;BME280;15036;48.094;-1.690;2023-04-19T07:56:33;101151.41;;;17.85;50.71
27613;BME280;15036;48.094;-1.690;2023-04-19T07:58:59;101152.75;;;17.94;50.67
27613;BME280;15036;48.094;-1.690;2023-04-19T08:01:24;101155.63;;;17.99;50.76
27613;BME280;15036;48.094;-1.690;2023-04-19T08:03:50;101153.13;;;18.09;50.32
27613;BME280;15036;48.094;-1.690;2023-04-19T08:06:15;101157.19;;;17.95;50.74
27613;BME280;15036;48.094;-1.690;2023-04-19T08:08:42;101151.44;;;17.96;50.90
27613;BME280;15036;48.094;-1.690;2023-04-19T08:11:07;101152.06;;;17.98;50.49
27613;BME280;15036;48.094;-1.690;2023-04-19T08:13:33;101146.53;;;18.33;49.80
27613;BME280;15036;48.094;-1.690;2023-04-19T08:15:58;101156.16;;;18.19;50.04
27613;BME280;15036;48.094;-1.690;2023-04-19T08:18:24;101149.78;;;18.42;49.94
27613;BME280;15036;48.094;-1.690;2023-04-19T08:20:50;101156.31;;;18.47;49.81
27613;BME280;15036;48.094;-1.690;2023-04-19T08:23:16;101145.69;;;18.33;50.40
27613;BME280;15036;48.094;-1.690;2023-04-19T08:25:41;101160.63;;;18.66;49.50
27613;BME280;15036;48.094;-1.690;2023-04-19T08:28:07;101145.00;;;18.60;49.60
27613;BME280;15036;48.094;-1.690;2023-04-19T08:30:32;101145.97;;;18.66;49.75
27613;BME280;15036;48.094;-1.690;2023-04-19T08:32:57;101148.69;;;18.89;49.27
27613;BME280;15036;48.094;-1.690;2023-04-19T08:35:23;101151.91;;;18.86;49.07
27613;BME280;15036;48.094;-1.690;2023-04-19T08:37:49;101148.31;;;18.97;49.08
27613;BME280;15036;48.094;-1.690;2023-04-19T08:40:15;101154.28;;;19.17;48.69
27613;BME280;15036;48.094;-1.690;2023-04-19T08:42:42;101152.19;;;19.24;48.31
27613;BME280;15036;48.094;-1.690;2023-04-19T08:45:07;101148.59;;;19.12;48.97
27613;BME280;15036;48.094;-1.690;2023-04-19T08:47:35;101150.06;;;19.15;48.53
27613;BME280;15036;48.094;-1.690;2023-04-19T08:50:03;101146.19;;;19.16;48.73
27613;BME280;15036;48.094;-1.690;2023-04-19T08:52:32;101155.19;;;19.23;48.52
27613;BME280;15036;48.094;-1.690;2023-04-19T08:55:02;101153.88;;;19.37;48.03
27613;BME280;15036;48.094;-1.690;2023-04-19T08:57:30;101144.59;;;19.20;48.41
27613;BME280;15036;48.094;-1.690;2023-04-19T08:59:56;101149.72;;;19.51;47.85
27613;BME280;15036;48.094;-1.690;2023-04-19T09:02:22;101143.34;;;19.67;47.70
27613;BME280;15036;48.094;-1.690;2023-04-19T09:04:48;101148.13;;;19.71;47.55
27613;BME280;15036;48.094;-1.690;2023-04-19T09:07:26;101139.09;;;19.76;47.55
27613;BME280;15036;48.094;-1.690;2023-04-19T09:10:08;101146.06;;;19.95;47.23
27613;BME280;15036;48.094;-1.690;2023-04-19T09:12:35;101136.91;;;20.11;46.76
27613;BME280;15036;48.094;-1.690;2023-04-19T09:15:03;101134.16;;;20.11;46.74
27613;BME280;15036;48.094;-1.690;2023-04-19T09:17:33;101126.59;;;20.23;46.45
27613;BME280;15036;48.094;-1.690;2023-04-19T09:19:58;101123.22;;;20.05;46.87
27613;BME280;15036;48.094;-1.690;2023-04-19T09:22:24;101118.56;;;20.22;46.10
27613;BME280;15036;48.094;-1.690;2023-04-19T09:24:50;101112.25;;;20.26;46.53
27613;BME280;15036;48.094;-1.690;2023-04-19T09:27:24;101120.59;;;20.15;46.68
27613;BME280;15036;48.094;-1.690;2023-04-19T09:29:55;101112.91;;;20.33;46.07
27613;BME280;15036;48.094;-1.690;2023-04-19T09:32:21;101114.13;;;20.42;46.08
27613;BME280;15036;48.094;-1.690;2023-04-19T09:34:57;101116.81;;;20.54;45.99
27613;BME280;15036;48.094;-1.690;2023-04-19T09:37:23;101123.31;;;20.81;45.89
27613;BME280;15036;48.094;-1.690;2023-04-19T09:39:49;101105.03;;;20.85;45.40
27613;BME280;15036;48.094;-1.690;2023-04-19T09:42:14;101111.94;;;20.83;45.65
27613;BME280;15036;48.094;-1.690;2023-04-19T09:44:54;101101.16;;;20.86;45.69
27613;BME280;15036;48.094;-1.690;2023-04-19T09:47:21;101102.66;;;21.15;45.09
27613;BME280;15036;48.094;-1.690;2023-04-19T09:50:05;101097.81;;;21.06;44.53
27613;BME280;15036;48.094;-1.690;2023-04-19T09:52:32;101095.00;;;21.27;44.67
27613;BME280;15036;48.094;-1.690;2023-04-19T09:55:03;101101.06;;;21.19;44.22
27613;BME280;15036;48.094;-1.690;2023-04-19T09:57:30;101103.69;;;21.31;44.05
27613;BME280;15036;48.094;-1.690;2023-04-19T09:59:57;101094.81;;;21.61;43.62
27613;BME280;15036;48.094;-1.690;2023-04-19T10:02:25;101092.44;;;21.74;43.14
27613;BME280;15036;48.094;-1.690;2023-04-19T10:04:51;101097.34;;;21.89;43.18
27613;BME280;15036;48.094;-1.690;2023-04-19T10:07:17;101091.53;;;21.95;43.31
27613;BME280;15036;48.094;-1.690;2023-04-19T10:09:45;101084.13;;;21.79;42.96
27613;BME280;15036;48.094;-1.690;2023-04-19T10:12:14;101086.91;;;21.79;42.79
27613;BME280;15036;48.094;-1.690;2023-04-19T10:14:41;101084.47;;;22.14;42.43
27613;BME280;15036;48.094;-1.690;2023-04-19T10:17:07;101083.97;;;22.27;42.75
27613;BME280;15036;48.094;-1.690;2023-04-19T10:19:34;101088.59;;;22.54;42.13
27613;BME280;15036;48.094;-1.690;2023-04-19T10:22:01;101080.75;;;22.46;42.17
27613;BME280;15036;48.094;-1.690;2023-04-19T10:24:32;101086.03;;;22.89;41.97
27613;BME280;15036;48.094;-1.690;2023-04-19T10:27:07;101080.25;;;23.05;41.62
27613;BME280;15036;48.094;-1.690;2023-04-19T10:32:15;101086.34;;;23.02;41.44
27613;BME280;15036;48.094;-1.690;2023-04-19T10:34:42;101081.06;;;23.06;41.67
27613;BME280;15036;48.094;-1.690;2023-04-19T10:37:11;101077.47;;;23.05;40.94
27613;BME280;15036;48.094;-1.690;2023-04-19T10:39:38;101066.16;;;23.52;40.53
27613;BME280;15036;48.094;-1.690;2023-04-19T10:42:04;101059.19;;;23.60;40.14
27613;BME280;15036;48.094;-1.690;2023-04-19T10:44:30;101063.69;;;23.61;39.20
27613;BME280;15036;48.094;-1.690;2023-04-19T10:46:57;101054.19;;;23.47;39.16
27613;BME280;15036;48.094;-1.690;2023-04-19T10:49:23;101053.91;;;23.93;38.86
27613;BME280;15036;48.094;-1.690;2023-04-19T10:51:49;101051.69;;;23.90;39.13
27613;BME280;15036;48.094;-1.690;2023-04-19T10:54:37;101052.50;;;24.26;39.22
27613;BME280;15036;48.094;-1.690;2023-04-19T10:57:06;101052.75;;;24.25;39.43
27613;BME280;15036;48.094;-1.690;2023-04-19T10:59:39;101060.63;;;24.07;38.93
27613;BME280;15036;48.094;-1.690;2023-04-19T11:07:16;101040.19;;;24.37;37.79
27613;BME280;15036;48.094;-1.690;2023-04-19T11:09:46;101046.06;;;24.36;38.03
27613;BME280;15036;48.094;-1.690;2023-04-19T11:12:13;101044.41;;;24.15;38.34
27613;BME280;15036;48.094;-1.690;2023-04-19T11:14:40;101039.00;;;24.63;37.44
27613;BME280;15036;48.094;-1.690;2023-04-19T11:17:17;101046.53;;;24.63;37.52
27613;BME280;15036;48.094;-1.690;2023-04-19T11:19:56;101040.09;;;24.72;37.50
27613;BME280;15036;48.094;-1.690;2023-04-19T11:22:32;101030.88;;;24.67;37.73
27613;BME280;15036;48.094;-1.690;2023-04-19T11:25:18;101028.22;;;25.01;37.71
27613;BME280;15036;48.094;-1.690;2023-04-19T11:27:49;101027.78;;;24.78;37.88
27613;BME280;15036;48.094;-1.690;2023-04-19T11:32:48;101028.41;;;24.55;37.35
27613;BME280;15036;48.094;-1.690;2023-04-19T11:35:18;101029.88;;;24.23;38.28
27613;BME280;15036;48.094;-1.690;2023-04-19T11:37:44;101014.41;;;24.65;37.72
27613;BME280;15036;48.094;-1.690;2023-04-19T11:40:14;101023.63;;;25.20;37.60
27613;BME280;15036;48.094;-1.690;2023-04-19T11:42:40;101017.28;;;25.53;37.07
27613;BME280;15036;48.094;-1.690;2023-04-19T11:45:06;101019.31;;;25.76;36.51
27613;BME280;15036;48.094;-1.690;2023-04-19T11:47:32;101014.50;;;25.87;36.18
27613;BME280;15036;48.094;-1.690;2023-04-19T11:52:58;100999.31;;;25.93;35.97
27613;BME280;15036;48.094;-1.690;2023-04-19T11:55:24;101001.81;;;25.94;35.80
27613;BME280;15036;48.094;-1.690;2023-04-19T11:57:51;100998.78;;;26.19;35.69
27613;BME280;15036;48.094;-1.690;2023-04-19T12:00:26;100996.41;;;25.74;35.54
27613;BME280;15036;48.094;-1.690;2023-04-19T12:02:52;100995.28;;;26.04;35.56
27613;BME280;15036;48.094;-1.690;2023-04-19T12:05:18;100996.38;;;26.36;35.21
27613;BME280;15036;48.094;-1.690;2023-04-19T12:08:05;100994.38;;;27.03;34.30
27613;BME280;15036;48.094;-1.690;2023-04-19T12:10:33;100976.56;;;27.12;34.30
27613;BME280;15036;48.094;-1.690;2023-04-19T12:12:59;100991.06;;;27.19;33.75
27613;BME280;15036;48.094;-1.690;2023-04-19T12:15:43;100978.16;;;27.56;32.75
27613;BME280;15036;48.094;-1.690;2023-04-19T12:18:09;100980.53;;;27.81;32.64
27613;BME280;15036;48.094;-1.690;2023-04-19T12:20:36;100973.41;;;27.70;32.56
27613;BME280;15036;48.094;-1.690;2023-04-19T12:23:03;100971.75;;;28.01;31.63
27613;BME280;15036;48.094;-1.690;2023-04-19T12:25:30;100972.84;;;27.54;32.23
27613;BME280;15036;48.094;-1.690;2023-04-19T12:27:56;100966.84;;;27.93;32.14
27613;BME280;15036;48.094;-1.690;2023-04-19T12:30:22;100968.25;;;28.36;31.51
27613;BME280;15036;48.094;-1.690;2023-04-19T12:32:47;100966.69;;;28.44;30.93
27613;BME280;15036;48.094;-1.690;2023-04-19T12:35:15;100955.97;;;29.08;30.49
27613;BME280;15036;48.094;-1.690;2023-04-19T12:37:41;100964.59;;;29.48;30.38
27613;BME280;15036;48.094;-1.690;2023-04-19T12:40:06;100961.03;;;29.78;29.65
27613;BME280;15036;48.094;-1.690;2023-04-19T12:42:32;100962.75;;;30.18;28.53
27613;BME280;15036;48.094;-1.690;2023-04-19T12:44:57;100954.25;;;30.40;29.18
27613;BME280;15036;48.094;-1.690;2023-04-19T12:47:23;100952.38;;;29.97;28.30
27613;BME280;15036;48.094;-1.690;2023-04-19T12:49:48;100968.03;;;29.80;28.76